sensor_id;sensor_type;location;lat;lon;timestamp;P1;durP1;ratioP1;P2;durP2;ratioP2
59314;SDS011;46521;50.160;20.802;2023-05-20T00:52:20;25.50;;;17.00;;
59314;SDS011;46521;50.160;20.802;2023-05-20T01:02:23;23.63;;;16.28;;
59314;SDS011;46521;50.160;20.802;2023-05-20T02:44:13;31.33;;;20.25;;
59314;SDS011;46521;50.160;20.802;2023-05-20T02:54:33;30.13;;;20.03;;
59314;SDS011;46521;50.160;20.802;2023-05-20T04:48:05;33.35;;;21.90;;
59314;SDS011;46521;50.160;20.802;2023-05-20T05:32:35;32.80;;;22.20;;
59314;SDS011;46521;50.160;20.802;2023-05-20T05:42:37;35.83;;;21.40;;
59314;SDS011;46521;50.160;20.802;2023-05-20T05:52:39;31.47;;;20.53;;
59314;SDS011;46521;50.160;20.802;2023-05-20T06:02:41;31.28;;;21.70;;
59314;SDS011;46521;50.160;20.802;2023-05-20T06:12:42;29.60;;;20.37;;
59314;SDS011;46521;50.160;20.802;2023-05-20T06:22:43;28.05;;;19.55;;
59314;SDS011;46521;50.160;20.802;2023-05-20T06:32:45;34.05;;;20.65;;
59314;SDS011;46521;50.160;20.802;2023-05-20T06:42:46;30.70;;;20.35;;
59314;SDS011;46521;50.160;20.802;2023-05-20T06:52:48;32.30;;;21.30;;
59314;SDS011;46521;50.160;20.802;2023-05-20T07:02:49;33.90;;;20.70;;
59314;SDS011;46521;50.160;20.802;2023-05-20T07:12:51;29.40;;;20.00;;
59314;SDS011;46521;50.160;20.802;2023-05-20T07:22:52;29.07;;;20.40;;
59314;SDS011;46521;50.160;20.802;2023-05-20T07:32:54;32.40;;;19.95;;
59314;SDS011;46521;50.160;20.802;2023-05-20T07:42:55;35.37;;;21.47;;
59314;SDS011;46521;50.160;20.802;2023-05-20T07:52:57;31.08;;;20.35;;
59314;SDS011;46521;50.160;20.802;2023-05-20T08:02:58;26.33;;;19.07;;
59314;SDS011;46521;50.160;20.802;2023-05-20T08:13:00;29.10;;;20.45;;
59314;SDS011;46521;50.160;20.802;2023-05-20T08:23:01;30.10;;;20.40;;
59314;SDS011;46521;50.160;20.802;2023-05-20T08:33:03;30.03;;;20.05;;
59314;SDS011;46521;50.160;20.802;2023-05-20T08:43:04;30.80;;;20.30;;
59314;SDS011;46521;50.160;20.802;2023-05-20T08:53:06;30.60;;;19.85;;
59314;SDS011;46521;50.160;20.802;2023-05-20T09:03:07;32.60;;;20.40;;
59314;SDS011;46521;50.160;20.802;2023-05-20T09:13:09;29.85;;;19.85;;
59314;SDS011;46521;50.160;20.802;2023-05-20T09:23:11;30.85;;;20.90;;
59314;SDS011;46521;50.160;20.802;2023-05-20T09:33:13;26.45;;;20.10;;
59314;SDS011;46521;50.160;20.802;2023-05-20T09:43:15;24.45;;;20.15;;
59314;SDS011;46521;50.160;20.802;2023-05-20T09:53:18;26.80;;;18.40;;
59314;SDS011;46521;50.160;20.802;2023-05-20T10:03:21;26.25;;;18.10;;
59314;SDS011;46521;50.160;20.802;2023-05-20T10:23:48;22.10;;;18.37;;
59314;SDS011;46521;50.160;20.802;2023-05-20T10:33:51;23.60;;;18.38;;
59314;SDS011;46521;50.160;20.802;2023-05-20T10:44:00;23.75;;;18.00;;
59314;SDS011;46521;50.160;20.802;2023-05-20T10:54:08;22.77;;;17.93;;
59314;SDS011;46521;50.160;20.802;2023-05-20T11:04:09;20.40;;;16.70;;
59314;SDS011;46521;50.160;20.802;2023-05-20T11:14:11;23.30;;;18.53;;
59314;SDS011;46521;50.160;20.802;2023-05-20T11:24:21;24.73;;;17.63;;
59314;SDS011;46521;50.160;20.802;2023-05-20T11:34:33;21.70;;;15.80;;
59314;SDS011;46521;50.160;20.802;2023-05-20T11:44:36;24.50;;;19.00;;
59314;SDS011;46521;50.160;20.802;2023-05-20T11:54:49;20.75;;;17.08;;
59314;SDS011;46521;50.160;20.802;2023-05-20T12:04:52;21.08;;;17.15;;
59314;SDS011;46521;50.160;20.802;2023-05-20T12:14:53;17.55;;;14.75;;
59314;SDS011;46521;50.160;20.802;2023-05-20T12:24:55;18.15;;;15.58;;
59314;SDS011;46521;50.160;20.802;2023-05-20T12:34:56;17.00;;;14.50;;
59314;SDS011;46521;50.160;20.802;2023-05-20T12:44:58;15.57;;;13.13;;
59314;SDS011;46521;50.160;20.802;2023-05-20T12:55:00;14.65;;;12.70;;
59314;SDS011;46521;50.160;20.802;2023-05-20T13:05:01;16.87;;;13.20;;
59314;SDS011;46521;50.160;20.802;2023-05-20T13:15:03;17.75;;;13.80;;
59314;SDS011;46521;50.160;20.802;2023-05-20T13:25:05;17.40;;;14.05;;
59314;SDS011;46521;50.160;20.802;2023-05-20T13:35:07;19.30;;;14.80;;
59314;SDS011;46521;50.160;20.802;2023-05-20T13:45:08;15.98;;;12.45;;
59314;SDS011;46521;50.160;20.802;2023-05-20T13:55:10;16.30;;;12.00;;
59314;SDS011;46521;50.160;20.802;2023-05-20T14:05:12;13.30;;;10.60;;
59314;SDS011;46521;50.160;20.802;2023-05-20T14:15:14;14.07;;;11.03;;
59314;SDS011;46521;50.160;20.802;2023-05-20T14:25:15;13.90;;;11.30;;
59314;SDS011;46521;50.160;20.802;2023-05-20T14:35:17;13.78;;;11.58;;
59314;SDS011;46521;50.160;20.802;2023-05-20T14:45:19;12.10;;;9.33;;
59314;SDS011;46521;50.160;20.802;2023-05-20T14:55:20;11.13;;;8.93;;
59314;SDS011;46521;50.160;20.802;2023-05-20T15:05:22;12.45;;;9.05;;
59314;SDS011;46521;50.160;20.802;2023-05-20T15:15:23;12.13;;;9.13;;
59314;SDS011;46521;50.160;20.802;2023-05-20T15:25:25;11.10;;;9.00;;
59314;SDS011;46521;50.160;20.802;2023-05-20T15:35:26;12.00;;;8.60;;
59314;SDS011;46521;50.160;20.802;2023-05-20T15:45:29;13.23;;;8.93;;
59314;SDS011;46521;50.160;20.802;2023-05-20T15:55:31;10.80;;;8.70;;
59314;SDS011;46521;50.160;20.802;2023-05-20T16:05:33;12.70;;;8.40;;
59314;SDS011;46521;50.160;20.802;2023-05-20T16:15:34;12.20;;;9.45;;
59314;SDS011;46521;50.160;20.802;2023-05-20T16:25:38;13.30;;;10.63;;
59314;SDS011;46521;50.160;20.802;2023-05-20T16:35:39;13.80;;;10.73;;
59314;SDS011;46521;50.160;20.802;2023-05-20T16:45:41;14.43;;;11.00;;
59314;SDS011;46521;50.160;20.802;2023-05-20T16:55:42;13.90;;;10.30;;
59314;SDS011;46521;50.160;20.802;2023-05-20T17:05:44;13.50;;;9.63;;
59314;SDS011;46521;50.160;20.802;2023-05-20T17:15:45;11.50;;;9.30;;
59314;SDS011;46521;50.160;20.802;2023-05-20T17:25:47;11.70;;;9.48;;
59314;SDS011;46521;50.160;20.802;2023-05-20T17:35:48;13.97;;;10.47;;
59314;SDS011;46521;50.160;20.802;2023-05-20T17:45:49;12.23;;;10.28;;
59314;SDS011;46521;50.160;20.802;2023-05-20T17:55:51;16.23;;;13.00;;
59314;SDS011;46521;50.160;20.802;2023-05-20T18:05:53;13.90;;;10.00;;
59314;SDS011;46521;50.160;20.802;2023-05-20T18:15:55;14.88;;;11.15;;
59314;SDS011;46521;50.160;20.802;2023-05-20T18:28:02;13.30;;;10.75;;
59314;SDS011;46521;50.160;20.802;2023-05-20T18:38:04;13.73;;;10.97;;
59314;SDS011;46521;50.160;20.802;2023-05-20T18:48:06;14.33;;;11.33;;
59314;SDS011;46521;50.160;20.802;2023-05-20T18:58:08;17.45;;;13.35;;
59314;SDS011;46521;50.160;20.802;2023-05-20T19:08:10;17.23;;;14.48;;
59314;SDS011;46521;50.160;20.802;2023-05-20T19:18:11;17.23;;;13.08;;
59314;SDS011;46521;50.160;20.802;2023-05-20T19:28:13;19.25;;;14.75;;
59314;SDS011;46521;50.160;20.802;2023-05-20T19:38:15;16.60;;;13.50;;
59314;SDS011;46521;50.160;20.802;2023-05-20T19:48:17;17.10;;;14.10;;
59314;SDS011;46521;50.160;20.802;2023-05-20T19:58:18;17.30;;;12.63;;
59314;SDS011;46521;50.160;20.802;2023-05-20T20:08:20;17.60;;;13.85;;
59314;SDS011;46521;50.160;20.802;2023-05-20T20:18:22;16.43;;;14.33;;
59314;SDS011;46521;50.160;20.802;2023-05-20T20:28:23;18.83;;;14.50;;
59314;SDS011;46521;50.160;20.802;2023-05-20T20:38:25;18.70;;;15.50;;
59314;SDS011;46521;50.160;20.802;2023-05-20T20:48:26;16.80;;;14.70;;
59314;SDS011;46521;50.160;20.802;2023-05-20T20:58:28;20.28;;;15.20;;
59314;SDS011;46521;50.160;20.802;2023-05-20T21:08:30;18.05;;;14.63;;
59314;SDS011;46521;50.160;20.802;2023-05-20T21:18:31;20.03;;;16.50;;
59314;SDS011;46521;50.160;20.802;2023-05-20T21:28:33;20.28;;;15.58;;
59314;SDS011;46521;50.160;20.802;2023-05-20T21:38:34;18.85;;;16.33;;
59314;SDS011;46521;50.160;20.802;2023-05-20T21:48:36;20.60;;;16.10;;
59314;SDS011;46521;50.160;20.802;2023-05-20T21:58:37;20.23;;;17.63;;
59314;SDS011;46521;50.160;20.802;2023-05-20T22:08:41;21.73;;;17.53;;
59314;SDS011;46521;50.160;20.802;2023-05-20T22:18:43;20.38;;;17.25;;
59314;SDS011;46521;50.160;20.802;2023-05-20T22:28:47;22.13;;;18.23;;
59314;SDS011;46521;50.160;20.802;2023-05-20T22:38:49;22.08;;;18.55;;
59314;SDS011;46521;50.160;20.802;2023-05-20T22:48:51;24.30;;;18.95;;
59314;SDS011;46521;50.160;20.802;2023-05-20T22:58:52;20.78;;;17.55;;
59314;SDS011;46521;50.160;20.802;2023-05-20T23:08:54;22.18;;;17.15;;
59314;SDS011;46521;50.160;20.802;2023-05-20T23:18:56;22.80;;;18.13;;
59314;SDS011;46521;50.160;20.802;2023-05-20T23:28:57;22.08;;;17.23;;
59314;SDS011;46521;50.160;20.802;2023-05-20T23:38:59;21.50;;;16.73;;
59314;SDS011;46521;50.160;20.802;2023-05-20T23:49:01;26.58;;;18.65;;
